createdAt,value
2017-10-19T00:00:48.606Z,32.1
2017-10-19T00:01:48.626Z,32.1
2017-10-19T00:02:48.656Z,32.1
2017-10-19T00:03:48.898Z,32.1
2017-10-19T00:04:48.772Z,32.1
2017-10-19T00:05:49.324Z,32.2
2017-10-19T00:06:48.825Z,32.2
2017-10-19T00:07:49.030Z,32.1
2017-10-19T00:08:48.859Z,32.2
2017-10-19T00:09:49.069Z,32.1
2017-10-19T00:10:48.997Z,32.1
2017-10-19T00:11:49.455Z,32.1
2017-10-19T00:12:49.205Z,32.1
2017-10-19T00:13:49.247Z,32.2
2017-10-19T00:14:49.103Z,32.1
2017-10-19T00:15:49.430Z,32.1
2017-10-19T00:16:49.445Z,32.1
2017-10-19T00:17:49.579Z,32.1
2017-10-19T00:18:49.537Z,32.1
2017-10-19T00:19:49.348Z,32.1
2017-10-19T00:20:49.393Z,32.1
2017-10-19T00:21:49.695Z,32.1
2017-10-19T00:22:49.823Z,32.1
2017-10-19T00:23:50.072Z,32.1
2017-10-19T00:24:49.677Z,32.1
2017-10-19T00:25:49.915Z,32.1
2017-10-19T00:26:49.720Z,32.1
2017-10-19T00:27:49.922Z,32.1
2017-10-19T00:28:49.767Z,32.1
2017-10-19T00:29:50.229Z,32.1
2017-10-19T00:30:49.805Z,32.2
2017-10-19T00:31:49.781Z,32.2
2017-10-19T00:32:50.034Z,32.2
2017-10-19T00:33:50.111Z,32.2
2017-10-19T00:34:50.185Z,32.1
2017-10-19T00:35:50.604Z,32.1
2017-10-19T00:36:50.126Z,32.1
2017-10-19T00:37:50.138Z,32.1
2017-10-19T00:38:50.149Z,32.1
2017-10-19T00:39:50.358Z,32.1
2017-10-19T00:40:50.390Z,32.1
2017-10-19T00:41:50.653Z,32.1
2017-10-19T00:42:50.509Z,32.1
2017-10-19T00:43:50.452Z,32.1
2017-10-19T00:44:50.486Z,32.1
2017-10-19T00:45:50.746Z,32.1
2017-10-19T00:46:50.583Z,32.1
2017-10-19T00:47:51.040Z,32.1
2017-10-19T00:48:50.955Z,32.1
2017-10-19T00:49:50.836Z,32.1
2017-10-19T00:50:50.804Z,32.1
2017-10-19T00:51:50.885Z,32.1
2017-10-19T00:52:50.966Z,32.1
2017-10-19T00:53:51.485Z,32.1
2017-10-19T00:54:51.018Z,32
2017-10-19T00:55:51.076Z,32
2017-10-19T00:56:51.370Z,32
2017-10-19T00:57:51.416Z,32
2017-10-19T00:58:51.497Z,32.1
2017-10-19T00:59:51.889Z,32.1
2017-10-19T01:00:52.275Z,32.1
2017-10-19T01:01:51.670Z,32.1
2017-10-19T01:02:51.790Z,32.1
2017-10-19T01:03:51.641Z,32.1
2017-10-19T01:04:51.897Z,32.1
2017-10-19T01:05:52.047Z,32.1
2017-10-19T01:06:52.052Z,32.1
2017-10-19T01:07:52.043Z,32.1
2017-10-19T01:08:51.983Z,32.1
2017-10-19T01:09:52.049Z,32.1
2017-10-19T01:10:52.323Z,32.1
2017-10-19T01:11:52.689Z,32.1
2017-10-19T01:12:52.197Z,32.1
2017-10-19T01:13:52.222Z,32.1
2017-10-19T01:14:52.213Z,32
2017-10-19T01:15:52.244Z,32
2017-10-19T01:16:52.305Z,32
2017-10-19T01:17:53.035Z,32
2017-10-19T01:18:52.646Z,32
2017-10-19T01:19:52.491Z,32
2017-10-19T01:20:52.616Z,32
2017-10-19T01:21:52.851Z,32
2017-10-19T01:22:52.904Z,32
2017-10-19T01:23:53.241Z,32
2017-10-19T01:24:52.990Z,32
2017-10-19T01:25:52.994Z,32
2017-10-19T01:26:52.841Z,32
2017-10-19T01:27:53.162Z,32
2017-10-19T01:28:52.982Z,32
2017-10-19T01:29:53.296Z,32
2017-10-19T01:30:53.336Z,32
2017-10-19T01:31:53.439Z,32
2017-10-19T01:32:53.405Z,32
2017-10-19T01:33:53.399Z,32
2017-10-19T01:34:53.250Z,32.1
2017-10-19T01:35:53.772Z,32.1
2017-10-19T01:36:53.444Z,32.1
2017-10-19T01:37:53.525Z,32.1
2017-10-19T01:38:53.541Z,32.1
2017-10-19T01:39:53.409Z,32.1
2017-10-19T01:40:53.443Z,32.1
2017-10-19T01:41:53.923Z,32.1
2017-10-19T01:42:53.443Z,32.1
2017-10-19T01:43:53.513Z,32.1
2017-10-19T01:44:53.836Z,32.1
2017-10-19T01:45:53.632Z,32.1
2017-10-19T01:46:53.873Z,32.1
2017-10-19T01:47:54.168Z,32.1
2017-10-19T01:48:53.737Z,32.1
2017-10-19T01:49:53.794Z,32.2
2017-10-19T01:50:54.055Z,32.1
2017-10-19T01:51:54.114Z,32.1
2017-10-19T01:52:54.232Z,32.1
2017-10-19T01:53:54.572Z,32.1
2017-10-19T01:54:54.154Z,32.1
2017-10-19T01:55:54.430Z,32.1
2017-10-19T01:56:54.471Z,32.1
2017-10-19T01:57:54.555Z,32.1
2017-10-19T01:58:54.654Z,32.1
2017-10-19T01:59:54.750Z,32.1
2017-10-19T02:00:54.649Z,32.1
2017-10-19T02:01:54.700Z,32.1
2017-10-19T02:02:54.539Z,32.1
2017-10-19T02:03:54.795Z,32.1
2017-10-19T02:04:54.835Z,32.1
2017-10-19T02:05:55.187Z,32.1
2017-10-19T02:07:00.089Z,32.1
2017-10-19T02:07:54.938Z,32.1
2017-10-19T02:08:55.032Z,32.1
2017-10-19T02:09:54.913Z,32.1
2017-10-19T02:10:54.929Z,32.1
2017-10-19T02:11:57.940Z,32
2017-10-19T02:12:55.050Z,32
2017-10-19T02:13:55.050Z,32.1
2017-10-19T02:14:55.305Z,32
2017-10-19T02:15:55.369Z,32
2017-10-19T02:16:55.280Z,32
2017-10-19T02:17:55.554Z,32
2017-10-19T02:18:55.345Z,32
2017-10-19T02:19:55.633Z,32.1
2017-10-19T02:20:55.640Z,32
2017-10-19T02:21:55.498Z,32.1
2017-10-19T02:22:55.818Z,32.1
2017-10-19T02:23:56.170Z,32.1
2017-10-19T02:24:55.938Z,32.1
2017-10-19T02:25:55.787Z,32
2017-10-19T02:26:56.017Z,32
2017-10-19T02:27:56.097Z,32
2017-10-19T02:28:56.018Z,32
2017-10-19T02:29:56.482Z,32
2017-10-19T02:30:56.204Z,32
2017-10-19T02:31:56.244Z,32
2017-10-19T02:32:56.166Z,32
2017-10-19T02:33:56.306Z,32
2017-10-19T02:34:56.182Z,32
2017-10-19T02:35:56.574Z,32.1
2017-10-19T02:36:56.565Z,32
2017-10-19T02:37:56.424Z,32
2017-10-19T02:38:56.484Z,32
2017-10-19T02:39:56.497Z,32
2017-10-19T02:40:56.803Z,32
2017-10-19T02:41:56.942Z,32
2017-10-19T02:42:56.702Z,32
2017-10-19T02:43:56.728Z,32
2017-10-19T02:44:56.866Z,32
2017-10-19T02:45:57.060Z,32
2017-10-19T02:46:56.982Z,32
2017-10-19T02:47:56.988Z,32
2017-10-19T02:48:57.070Z,32
2017-10-19T02:49:57.330Z,32
2017-10-19T02:50:57.297Z,32
2017-10-19T02:51:57.174Z,32
2017-10-19T02:52:57.506Z,32
2017-10-19T02:53:57.253Z,32
2017-10-19T02:54:57.491Z,32
2017-10-19T02:55:57.383Z,32
2017-10-19T02:56:57.370Z,32
2017-10-19T02:57:57.658Z,32
2017-10-19T02:58:57.637Z,32
2017-10-19T02:59:57.720Z,32
2017-10-19T03:00:57.633Z,32
2017-10-19T03:01:57.796Z,31.9
2017-10-19T03:02:57.892Z,31.9
2017-10-19T03:03:57.777Z,31.9
2017-10-19T03:04:57.993Z,31.9
2017-10-19T03:05:57.809Z,31.9
2017-10-19T03:06:57.878Z,31.9
2017-10-19T03:07:58.065Z,31.9
2017-10-19T03:08:58.084Z,31.9
2017-10-19T03:09:57.940Z,31.9
2017-10-19T03:10:58.217Z,31.9
2017-10-19T03:11:58.265Z,31.9
2017-10-19T03:12:58.091Z,31.9
2017-10-19T03:13:58.071Z,31.9
2017-10-19T03:14:58.147Z,31.9
2017-10-19T03:15:58.287Z,31.9
2017-10-19T03:16:58.250Z,31.9
2017-10-19T03:17:58.379Z,31.9
2017-10-19T03:18:58.572Z,31.9
2017-10-19T03:19:58.348Z,31.9
2017-10-19T03:20:58.640Z,31.9
2017-10-19T03:21:58.733Z,31.9
2017-10-19T03:22:58.566Z,31.9
2017-10-19T03:23:58.839Z,31.9
2017-10-19T03:24:58.865Z,31.9
2017-10-19T03:25:58.776Z,31.9
2017-10-19T03:26:58.969Z,31.9
2017-10-19T03:27:58.858Z,31.9
2017-10-19T03:28:58.812Z,32
2017-10-19T03:29:58.940Z,32
2017-10-19T03:30:58.928Z,32
2017-10-19T03:31:58.999Z,32
2017-10-19T03:32:59.310Z,32
2017-10-19T03:33:59.175Z,32
2017-10-19T03:34:59.395Z,32
2017-10-19T03:35:59.218Z,31.9
2017-10-19T03:36:59.285Z,31.9
2017-10-19T03:37:59.335Z,31.9
2017-10-19T03:38:59.569Z,31.9
2017-10-19T03:39:59.459Z,32
2017-10-19T03:40:59.756Z,32
2017-10-19T03:41:59.551Z,32
2017-10-19T03:42:59.787Z,32
2017-10-19T03:43:59.855Z,32
2017-10-19T03:44:59.716Z,32
2017-10-19T03:45:59.987Z,31.9
2017-10-19T03:46:59.835Z,31.9
2017-10-19T03:47:59.934Z,31.8
2017-10-19T03:49:00.067Z,31.8
2017-10-19T03:50:00.276Z,31.8
2017-10-19T03:51:00.268Z,31.9
2017-10-19T03:52:00.294Z,31.9
2017-10-19T03:53:00.417Z,31.9
2017-10-19T03:54:00.551Z,31.9
2017-10-19T03:55:00.377Z,31.9
2017-10-19T03:56:00.463Z,31.9
2017-10-19T03:57:00.727Z,31.9
2017-10-19T03:58:00.562Z,31.9
2017-10-19T03:59:00.493Z,31.9
2017-10-19T04:00:00.578Z,31.9
2017-10-19T04:01:00.700Z,31.9
2017-10-19T04:02:00.711Z,31.9
2017-10-19T04:03:00.734Z,31.9
2017-10-19T04:04:00.706Z,31.9
2017-10-19T04:05:00.828Z,31.9
2017-10-19T04:06:00.847Z,31.9
2017-10-19T04:07:01.090Z,31.9
2017-10-19T04:08:00.879Z,31.9
2017-10-19T04:09:00.902Z,31.9
2017-10-19T04:10:00.952Z,32
2017-10-19T04:11:01.156Z,32
2017-10-19T04:12:01.006Z,32
2017-10-19T04:13:01.072Z,31.9
2017-10-19T04:14:01.264Z,31.9
2017-10-19T04:15:01.146Z,31.9
2017-10-19T04:16:01.214Z,31.9
2017-10-19T04:17:01.314Z,31.9
2017-10-19T04:18:01.282Z,31.9
2017-10-19T04:19:01.436Z,31.9
2017-10-19T04:20:01.626Z,31.9
2017-10-19T04:21:01.681Z,31.9
2017-10-19T04:22:01.470Z,32
2017-10-19T04:23:01.510Z,32
2017-10-19T04:24:01.562Z,32
2017-10-19T04:25:01.810Z,31.9
2017-10-19T04:26:01.865Z,31.9
2017-10-19T04:27:01.710Z,31.9
2017-10-19T04:28:01.765Z,31.9
2017-10-19T04:29:02.073Z,31.9
2017-10-19T04:30:02.114Z,31.9
2017-10-19T04:31:02.097Z,31.9
2017-10-19T04:32:02.230Z,31.9
2017-10-19T04:33:02.064Z,31.9
2017-10-19T04:34:02.174Z,31.9
2017-10-19T04:35:02.249Z,31.8
2017-10-19T04:36:02.272Z,31.7
2017-10-19T04:37:02.511Z,31.6
2017-10-19T04:38:02.269Z,31.5
2017-10-19T04:39:02.373Z,31.2
2017-10-19T04:40:02.574Z,30.9
2017-10-19T04:41:02.542Z,30.6
2017-10-19T04:42:02.458Z,30.4
2017-10-19T04:43:02.421Z,30.1
2017-10-19T04:44:02.714Z,29.9
2017-10-19T04:45:02.547Z,29.6
2017-10-19T04:46:02.868Z,29.3
2017-10-19T04:47:02.643Z,29.1
2017-10-19T04:48:02.876Z,28.9
2017-10-19T04:49:02.856Z,28.7
2017-10-19T04:50:02.720Z,28.6
2017-10-19T04:51:02.973Z,28.4
2017-10-19T04:52:03.107Z,28.2
2017-10-19T04:53:02.934Z,27.9
2017-10-19T04:54:02.935Z,27.8
2017-10-19T04:55:03.026Z,27.7
2017-10-19T04:56:03.031Z,27.6
2017-10-19T04:57:03.015Z,27.5
2017-10-19T04:58:03.108Z,27.5
2017-10-19T04:59:03.200Z,27.4
2017-10-19T05:00:03.276Z,27.3
2017-10-19T05:01:03.349Z,27.1
2017-10-19T05:02:03.336Z,27
2017-10-19T05:03:03.578Z,27
2017-10-19T05:04:03.477Z,27
2017-10-19T05:05:03.681Z,27
2017-10-19T05:06:03.688Z,26.9
2017-10-19T05:07:03.586Z,27
2017-10-19T05:08:03.879Z,27
2017-10-19T05:09:03.873Z,27
2017-10-19T05:10:03.998Z,27
2017-10-19T05:11:03.941Z,27.1
2017-10-19T05:12:03.784Z,27.2
2017-10-19T05:13:03.823Z,27.3
2017-10-19T05:14:04.142Z,27.4
2017-10-19T05:15:04.103Z,27.4
2017-10-19T05:16:04.323Z,27.3
2017-10-19T05:17:04.082Z,27.3
2017-10-19T05:18:04.738Z,27.3
2017-10-19T05:19:04.624Z,27.3
2017-10-19T05:20:04.712Z,27.3
2017-10-19T05:21:04.813Z,27.4
2017-10-19T05:22:04.378Z,27.3
2017-10-19T05:23:04.486Z,27.3
2017-10-19T05:24:04.718Z,27.4
2017-10-19T05:25:04.598Z,27.4
2017-10-19T05:26:04.890Z,27.5
2017-10-19T05:27:04.869Z,27.6
2017-10-19T05:28:05.084Z,27.7
2017-10-19T05:29:04.961Z,27.9
2017-10-19T05:30:04.900Z,28
2017-10-19T05:31:04.916Z,28.1
2017-10-19T05:32:05.170Z,28.3
2017-10-19T05:33:05.045Z,28.5
2017-10-19T05:34:05.307Z,28.6
2017-10-19T05:35:05.174Z,28.7
2017-10-19T05:36:05.563Z,28.8
2017-10-19T05:37:05.414Z,28.9
2017-10-19T05:38:05.338Z,29
2017-10-19T05:39:05.307Z,29.1
2017-10-19T05:40:05.551Z,29.2
2017-10-19T05:41:05.495Z,29.3
2017-10-19T05:42:05.686Z,29.4
2017-10-19T05:43:05.783Z,29.4
2017-10-19T05:44:05.836Z,29.5
2017-10-19T05:45:05.784Z,29.5
2017-10-19T05:46:05.900Z,29.6
2017-10-19T05:47:05.876Z,29.6
2017-10-19T05:48:06.053Z,29.6
2017-10-19T05:49:06.190Z,29.7
2017-10-19T05:50:06.126Z,29.7
2017-10-19T05:51:06.037Z,29.8
2017-10-19T05:52:06.349Z,29.8
2017-10-19T05:53:06.088Z,29.8
2017-10-19T05:54:06.249Z,29.9
2017-10-19T05:55:06.291Z,29.9
2017-10-19T05:56:06.450Z,29.9
2017-10-19T05:57:06.468Z,29.9
2017-10-19T05:58:06.566Z,30
2017-10-19T05:59:06.469Z,30
2017-10-19T06:00:06.707Z,30
2017-10-19T06:01:06.475Z,30
2017-10-19T06:02:06.586Z,30.1
2017-10-19T06:03:06.645Z,30.1
2017-10-19T06:04:06.777Z,30.1
2017-10-19T06:05:07.083Z,30.1
2017-10-19T06:06:07.068Z,30.1
2017-10-19T06:07:06.908Z,30.1
2017-10-19T06:08:06.937Z,30.2
2017-10-19T06:09:07.009Z,30.2
2017-10-19T06:10:07.243Z,30.2
2017-10-19T06:11:07.147Z,30.2
2017-10-19T06:12:07.887Z,30.2
2017-10-19T06:13:07.236Z,30.2
2017-10-19T06:14:07.347Z,30.2
2017-10-19T06:15:07.435Z,30.3
2017-10-19T06:16:07.661Z,30.3
2017-10-19T06:17:07.479Z,30.3
2017-10-19T06:18:07.816Z,30.3
2017-10-19T06:19:07.617Z,30.4
2017-10-19T06:20:07.815Z,30.4
2017-10-19T06:21:07.873Z,30.4
2017-10-19T06:22:07.852Z,30.4
2017-10-19T06:23:07.771Z,30.4
2017-10-19T06:24:08.016Z,30.4
2017-10-19T06:25:08.082Z,30.4
2017-10-19T06:26:08.143Z,30.5
2017-10-19T06:27:08.111Z,30.5
2017-10-19T06:28:08.425Z,30.5
2017-10-19T06:29:08.573Z,30.5
2017-10-19T06:30:08.304Z,30.5
2017-10-19T06:31:08.234Z,30.5
2017-10-19T06:32:08.311Z,30.5
2017-10-19T06:33:08.592Z,30.5
2017-10-19T06:34:08.799Z,30.5
2017-10-19T06:35:08.502Z,30.5
2017-10-19T06:36:08.631Z,30.6
2017-10-19T06:37:08.665Z,30.6
2017-10-19T06:38:08.565Z,30.6
2017-10-19T06:39:08.885Z,30.6
2017-10-19T06:40:08.820Z,30.7
2017-10-19T06:41:08.711Z,30.7
2017-10-19T06:42:08.912Z,30.7
2017-10-19T06:43:08.948Z,30.7
2017-10-19T06:44:10.761Z,30.7
2017-10-19T06:45:09.007Z,30.8
2017-10-19T06:46:09.241Z,30.8
2017-10-19T06:47:08.872Z,30.8
2017-10-19T06:48:09.437Z,30.9
2017-10-19T06:49:09.180Z,30.9
2017-10-19T06:50:09.074Z,31
2017-10-19T06:51:09.334Z,31
2017-10-19T06:52:09.169Z,31
2017-10-19T06:53:09.753Z,31.1
2017-10-19T06:54:09.613Z,31.1
2017-10-19T06:55:09.435Z,31.1
2017-10-19T06:56:09.605Z,31.2
2017-10-19T06:57:09.467Z,31.2
2017-10-19T06:58:09.687Z,31.2
2017-10-19T06:59:09.911Z,31.2
2017-10-19T07:00:10.045Z,31.3
2017-10-19T07:01:09.820Z,31.3
2017-10-19T07:02:09.893Z,31.3
2017-10-19T07:03:09.969Z,31.4
2017-10-19T07:04:10.290Z,31.4
2017-10-19T07:05:10.315Z,31.4
2017-10-19T07:06:10.453Z,31.5
2017-10-19T07:07:10.449Z,31.5
2017-10-19T07:08:10.455Z,31.5
2017-10-19T07:09:10.433Z,31.6
2017-10-19T07:10:10.355Z,31.7
2017-10-19T07:11:10.388Z,31.8
2017-10-19T07:12:10.950Z,31.8
2017-10-19T07:13:10.614Z,31.9
2017-10-19T07:14:10.653Z,32
2017-10-19T07:15:10.641Z,32.1
2017-10-19T07:16:10.739Z,32.1
2017-10-19T07:17:10.754Z,32.2
2017-10-19T07:18:10.948Z,32.3
2017-10-19T07:19:10.766Z,32.4
2017-10-19T07:20:10.813Z,32.5
2017-10-19T07:21:10.901Z,32.5
2017-10-19T07:22:10.924Z,32.6
2017-10-19T07:23:10.810Z,32.7
2017-10-19T07:24:11.198Z,32.7
2017-10-19T07:25:11.091Z,32.8
2017-10-19T07:26:11.130Z,32.8
2017-10-19T07:27:11.368Z,32.9
2017-10-19T07:28:11.691Z,33
2017-10-19T07:29:11.554Z,33
2017-10-19T07:30:11.753Z,33.1
2017-10-19T07:31:11.511Z,33.2
2017-10-19T07:32:11.199Z,33.3
2017-10-19T07:33:11.149Z,33.4
2017-10-19T07:34:11.214Z,33.5
2017-10-19T07:35:11.432Z,33.6
2017-10-19T07:36:11.742Z,33.7
2017-10-19T07:37:11.374Z,33.8
2017-10-19T07:38:11.466Z,33.8
2017-10-19T07:39:11.894Z,34
2017-10-19T07:40:11.755Z,34.1
2017-10-19T07:41:11.853Z,34.2
2017-10-19T07:42:12.151Z,34.2
2017-10-19T07:43:11.879Z,34.3
2017-10-19T07:44:12.090Z,34.4
2017-10-19T07:45:12.135Z,34.4
2017-10-19T07:46:11.923Z,34.5
2017-10-19T07:47:12.590Z,34.5
2017-10-19T07:48:12.249Z,34.6
2017-10-19T07:49:12.318Z,34.7
2017-10-19T07:50:12.220Z,34.7
2017-10-19T07:51:12.178Z,34.8
2017-10-19T07:52:12.402Z,34.8
2017-10-19T07:53:12.774Z,34.9
2017-10-19T07:54:12.598Z,34.9
2017-10-19T07:55:12.587Z,35
2017-10-19T07:56:12.655Z,35
2017-10-19T07:57:13.623Z,34.9
2017-10-19T07:58:13.387Z,34.9
2017-10-19T07:59:13.059Z,34.8
2017-10-19T08:00:12.914Z,34.6
2017-10-19T08:01:12.761Z,34.7
2017-10-19T08:02:12.847Z,34.6
2017-10-19T08:03:12.893Z,34.5
2017-10-19T08:04:13.170Z,34.6
2017-10-19T08:05:13.354Z,34.6
2017-10-19T08:06:13.065Z,34.6
2017-10-19T08:07:12.964Z,34.5
2017-10-19T08:08:13.266Z,34.4
2017-10-19T08:09:13.926Z,34.4
2017-10-19T08:10:13.219Z,34.4
2017-10-19T08:11:13.759Z,34.5
2017-10-19T08:12:13.546Z,34.5
2017-10-19T08:13:14.505Z,34.4
2017-10-19T08:14:13.302Z,34.4
2017-10-19T08:15:13.306Z,34.3
2017-10-19T08:16:13.653Z,34.2
2017-10-19T08:17:13.880Z,34.2
2017-10-19T08:18:13.951Z,34.2
2017-10-19T08:19:13.994Z,34.1
2017-10-19T08:20:13.839Z,34
2017-10-19T08:21:13.983Z,33.8
2017-10-19T08:22:14.257Z,33.5
2017-10-19T08:23:14.508Z,33.3
2017-10-19T08:24:14.117Z,33.1
2017-10-19T08:25:14.038Z,33
2017-10-19T08:26:14.308Z,32.8
2017-10-19T08:27:14.372Z,32.7
2017-10-19T08:28:14.178Z,32.6
2017-10-19T08:29:14.458Z,32.5
2017-10-19T08:30:14.439Z,32.4
2017-10-19T08:31:14.563Z,32.3
2017-10-19T08:32:14.756Z,32.2
2017-10-19T08:33:14.489Z,32.1
2017-10-19T08:34:14.777Z,32.1
2017-10-19T08:35:14.840Z,32.1
2017-10-19T08:36:14.779Z,32
2017-10-19T08:37:14.884Z,32
2017-10-19T08:38:14.681Z,32
2017-10-19T08:39:14.940Z,31.9
2017-10-19T08:40:15.679Z,31.8
2017-10-19T08:41:16.080Z,31.8
2017-10-19T08:42:14.823Z,31.8
2017-10-19T08:43:15.219Z,31.8
2017-10-19T08:44:15.143Z,31.7
2017-10-19T08:45:15.334Z,31.7
2017-10-19T08:46:16.080Z,31.7
2017-10-19T08:47:15.786Z,31.7
2017-10-19T08:48:18.567Z,31.7
2017-10-19T08:49:15.535Z,31.7
2017-10-19T08:50:15.344Z,31.6
2017-10-19T08:51:15.598Z,31.6
2017-10-19T08:52:15.379Z,31.6
2017-10-19T08:53:15.973Z,31.5
2017-10-19T08:54:15.795Z,31.5
2017-10-19T08:55:15.850Z,31.5
2017-10-19T08:56:15.572Z,31.5
2017-10-19T08:57:15.970Z,31.5
2017-10-19T08:58:15.777Z,31.4
2017-10-19T08:59:15.966Z,31.4
2017-10-19T09:00:15.764Z,31.4
2017-10-19T09:01:15.998Z,31.3
2017-10-19T09:02:15.870Z,31.3
2017-10-19T09:03:16.243Z,31.2
2017-10-19T09:04:15.810Z,31.1
2017-10-19T09:05:16.146Z,31.2
2017-10-19T09:06:15.948Z,31.2
2017-10-19T09:07:16.042Z,31.2
2017-10-19T09:08:16.251Z,31.2
2017-10-19T09:09:16.304Z,31.2
2017-10-19T09:10:17.252Z,31.2
2017-10-19T09:11:16.805Z,31.2
2017-10-19T09:12:16.243Z,31.2
2017-10-19T09:13:16.590Z,31.2
2017-10-19T09:14:16.341Z,31.2
2017-10-19T09:15:16.487Z,31.2
2017-10-19T09:16:16.494Z,31.2
2017-10-19T09:17:17.559Z,31.2
2017-10-19T09:18:22.615Z,31.3
2017-10-19T09:19:18.361Z,31.4
2017-10-19T09:20:21.959Z,31.4
2017-10-19T09:21:21.758Z,31.5
2017-10-19T09:22:21.677Z,31.5
2017-10-19T09:23:22.171Z,31.5
2017-10-19T09:24:17.164Z,31.5
2017-10-19T09:25:17.364Z,31.5
2017-10-19T09:26:17.341Z,31.5
2017-10-19T09:27:17.243Z,31.5
2017-10-19T09:28:17.112Z,31.5
2017-10-19T09:29:18.244Z,31.5
2017-10-19T09:30:17.381Z,31.5
2017-10-19T09:31:17.477Z,31.5
2017-10-19T09:32:17.559Z,31.5
2017-10-19T09:33:17.582Z,31.5
2017-10-19T09:34:17.345Z,31.5
2017-10-19T09:35:17.856Z,31.5
2017-10-19T09:36:17.446Z,31.4
2017-10-19T09:37:17.833Z,31.5
2017-10-19T09:38:17.857Z,31.5
2017-10-19T09:39:17.769Z,31.5
2017-10-19T09:40:17.787Z,31.5
2017-10-19T09:41:18.106Z,31.5
2017-10-19T09:42:18.128Z,31.6
2017-10-19T09:43:18.113Z,31.6
2017-10-19T09:44:17.947Z,31.7
2017-10-19T09:45:17.854Z,31.7
2017-10-19T09:46:17.726Z,31.7
2017-10-19T09:47:18.046Z,31.7
2017-10-19T09:48:18.115Z,31.7
2017-10-19T09:49:18.169Z,31.6
2017-10-19T09:50:18.313Z,31.5
2017-10-19T09:51:18.228Z,31.5
2017-10-19T09:52:18.317Z,31.5
2017-10-19T09:53:18.521Z,31.5
2017-10-19T09:54:18.315Z,31.5
2017-10-19T09:55:18.176Z,31.5
2017-10-19T09:56:18.582Z,31.5
2017-10-19T09:57:18.523Z,31.6
2017-10-19T09:58:18.490Z,31.6
2017-10-19T09:59:18.900Z,31.6
2017-10-19T10:00:18.557Z,31.6
2017-10-19T10:01:18.706Z,31.7
2017-10-19T10:02:18.729Z,31.7
2017-10-19T10:03:18.434Z,31.7
2017-10-19T10:04:18.643Z,31.7
2017-10-19T10:05:18.987Z,31.7
2017-10-19T10:06:18.861Z,31.7
2017-10-19T10:07:18.661Z,31.7
2017-10-19T10:08:18.997Z,31.8
2017-10-19T10:09:18.904Z,31.8
2017-10-19T10:10:19.681Z,31.8
2017-10-19T10:11:19.503Z,31.9
2017-10-19T10:12:19.303Z,31.9
2017-10-19T10:13:19.067Z,32
2017-10-19T10:14:19.521Z,32
2017-10-19T10:15:19.342Z,32.1
2017-10-19T10:16:19.257Z,32.1
2017-10-19T10:17:19.666Z,32.1
2017-10-19T10:18:19.697Z,32.2
2017-10-19T10:19:19.380Z,32.2
2017-10-19T10:20:19.553Z,32.2
2017-10-19T10:21:19.792Z,32.2
2017-10-19T10:22:20.057Z,32.3
2017-10-19T10:23:20.070Z,32.4
2017-10-19T10:24:19.906Z,32.5
2017-10-19T10:25:19.676Z,32.6
2017-10-19T10:26:19.773Z,32.6
2017-10-19T10:27:20.091Z,32.6
2017-10-19T10:28:19.800Z,32.6
2017-10-19T10:29:20.078Z,32.6
2017-10-19T10:30:20.251Z,32.6
2017-10-19T10:31:19.846Z,32.6
2017-10-19T10:32:20.044Z,32.6
2017-10-19T10:33:20.105Z,32.6
2017-10-19T10:34:24.846Z,32.6
2017-10-19T10:35:24.077Z,32.7
2017-10-19T10:36:24.151Z,32.7
2017-10-19T10:37:23.469Z,32.7
2017-10-19T10:38:20.369Z,32.7
2017-10-19T10:39:20.585Z,32.7
2017-10-19T10:40:20.509Z,32.7
2017-10-19T10:41:20.894Z,32.8
2017-10-19T10:42:21.255Z,32.8
2017-10-19T10:43:24.283Z,32.9
2017-10-19T10:44:24.586Z,32.9
2017-10-19T10:45:23.889Z,32.9
2017-10-19T10:46:24.770Z,32.9
2017-10-19T10:47:25.823Z,32.9
2017-10-19T10:48:24.863Z,33
2017-10-19T10:49:21.283Z,33
2017-10-19T10:50:21.080Z,33
2017-10-19T10:51:26.940Z,33.1
2017-10-19T10:52:26.028Z,33.1
2017-10-19T10:53:27.276Z,33.1
2017-10-19T10:54:28.344Z,33.1
2017-10-19T10:55:25.983Z,33.2
2017-10-19T10:56:25.280Z,33.2
2017-10-19T10:57:26.136Z,33.2
2017-10-19T10:58:25.367Z,33.2
2017-10-19T10:59:26.337Z,33.2
2017-10-19T11:00:26.055Z,33.2
2017-10-19T11:01:25.936Z,33.2
2017-10-19T11:02:25.615Z,33.2
2017-10-19T11:03:26.259Z,33.2
2017-10-19T11:04:26.667Z,33.2
2017-10-19T11:05:27.351Z,33.3
2017-10-19T11:06:25.860Z,33.3
2017-10-19T11:07:26.846Z,33.4
2017-10-19T11:08:25.698Z,33.4
2017-10-19T11:09:26.505Z,33.4
2017-10-19T11:10:26.661Z,33.4
2017-10-19T11:11:26.370Z,33.4
2017-10-19T11:12:26.547Z,33.5
2017-10-19T11:13:26.953Z,33.4
2017-10-19T11:14:27.630Z,33.5
2017-10-19T11:15:26.627Z,33.4
2017-10-19T11:16:26.874Z,33.4
2017-10-19T11:17:27.406Z,33.4
2017-10-19T11:18:28.150Z,33.4
2017-10-19T11:19:26.097Z,33.4
2017-10-19T11:20:27.015Z,33.4
2017-10-19T11:21:22.660Z,33.5
2017-10-19T11:22:22.959Z,33.5
2017-10-19T11:23:22.950Z,33.5
2017-10-19T11:24:23.254Z,33.5
2017-10-19T11:25:23.828Z,33.5
2017-10-19T11:26:24.240Z,33.5
2017-10-19T11:27:23.261Z,33.5
2017-10-19T11:28:22.888Z,33.5
2017-10-19T11:29:23.131Z,33.5
2017-10-19T11:30:23.130Z,33.5
2017-10-19T11:31:23.496Z,33.5
2017-10-19T11:32:23.061Z,33.5
2017-10-19T11:33:23.194Z,33.5
2017-10-19T11:34:23.216Z,33.5
2017-10-19T11:35:23.356Z,33.6
2017-10-19T11:36:23.657Z,33.5
2017-10-19T11:37:23.446Z,33.6
2017-10-19T11:38:23.643Z,33.5
2017-10-19T11:39:23.608Z,33.6
2017-10-19T11:40:23.553Z,33.5
2017-10-19T11:41:23.694Z,33.5
2017-10-19T11:42:23.920Z,33.5
2017-10-19T11:43:23.753Z,33.5
2017-10-19T11:44:23.908Z,33.5
2017-10-19T11:45:23.734Z,33.4
2017-10-19T11:46:23.938Z,33.4
2017-10-19T11:47:24.122Z,33.4
2017-10-19T11:48:24.087Z,33.3
2017-10-19T11:49:24.022Z,33.3
2017-10-19T11:50:24.162Z,33.3
2017-10-19T11:51:24.310Z,33.3
2017-10-19T11:52:24.274Z,33.3
2017-10-19T11:53:24.393Z,33.3
2017-10-19T11:54:24.783Z,33.3
2017-10-19T11:55:24.283Z,33.2
2017-10-19T11:56:24.509Z,33.2
2017-10-19T11:57:24.500Z,33.2
2017-10-19T11:58:24.393Z,33.2
2017-10-19T11:59:24.517Z,33.2
2017-10-19T12:00:24.454Z,33.2
2017-10-19T12:01:24.503Z,33.2
2017-10-19T12:02:24.676Z,33.2
2017-10-19T12:03:24.613Z,33.1
2017-10-19T12:04:24.807Z,33.1
2017-10-19T12:05:25.066Z,33
2017-10-19T12:06:24.927Z,33.1
2017-10-19T12:07:25.171Z,33.1
2017-10-19T12:08:24.837Z,33.1
2017-10-19T12:09:25.231Z,33.1
2017-10-19T12:10:25.350Z,33.1
2017-10-19T12:11:25.030Z,33.1
2017-10-19T12:12:25.109Z,33.1
2017-10-19T12:13:25.317Z,33.1
2017-10-19T12:14:25.584Z,33.2
2017-10-19T12:15:25.346Z,33.2
2017-10-19T12:16:26.553Z,33.2
2017-10-19T12:17:26.130Z,33.1
2017-10-19T12:18:25.504Z,33.2
2017-10-19T12:19:25.545Z,33.2
2017-10-19T12:20:26.241Z,33.2
2017-10-19T12:21:25.831Z,33.2
2017-10-19T12:22:25.745Z,33.3
2017-10-19T12:23:25.848Z,33.3
2017-10-19T12:24:25.703Z,33.3
2017-10-19T12:25:25.922Z,33.4
2017-10-19T12:26:26.086Z,33.4
2017-10-19T12:27:26.131Z,33.4
2017-10-19T12:30:43.363Z,33.4
2017-10-19T12:31:42.997Z,33.4
2017-10-19T12:32:43.144Z,33.4
2017-10-19T12:39:34.913Z,33.4
2017-10-19T12:40:32.869Z,33.4
2017-10-19T12:41:33.026Z,33.3
2017-10-19T12:42:33.557Z,33.3
2017-10-19T12:43:32.956Z,33.3
2017-10-19T12:44:32.945Z,33.3
2017-10-19T12:45:33.029Z,33.3
2017-10-19T12:46:32.501Z,33.3
2017-10-19T12:47:32.873Z,33.3
2017-10-19T12:48:32.772Z,33.3
2017-10-19T12:49:32.845Z,33.2
2017-10-19T12:50:32.778Z,33.2
2017-10-19T12:51:33.117Z,33.2
2017-10-19T12:52:32.966Z,33.2
2017-10-19T12:53:33.057Z,33.2
2017-10-19T12:54:33.191Z,33.3
2017-10-19T12:55:33.593Z,33.3
2017-10-19T12:56:33.198Z,33.2
2017-10-19T12:57:33.242Z,33.3
2017-10-19T12:58:33.515Z,33.3
2017-10-19T12:59:33.336Z,33.3
2017-10-19T13:00:33.704Z,33.4
2017-10-19T13:01:33.495Z,33.4
2017-10-19T13:02:33.481Z,33.4
2017-10-19T13:03:33.614Z,33.4
2017-10-19T13:04:33.502Z,33.5
2017-10-19T13:05:33.696Z,33.5
2017-10-19T13:06:33.885Z,33.5
2017-10-19T13:07:33.867Z,33.5
2017-10-19T13:08:33.675Z,33.5
2017-10-19T13:09:34.045Z,33.3
2017-10-19T13:10:33.944Z,33.4
2017-10-19T13:11:33.790Z,33.4
2017-10-19T13:12:34.145Z,33.4
2017-10-19T13:13:33.883Z,33.4
2017-10-19T13:14:34.135Z,33.4
2017-10-19T13:15:34.240Z,33.4
2017-10-19T13:16:34.236Z,33.4
2017-10-19T13:17:34.179Z,33.4
2017-10-19T13:18:34.284Z,33.3
2017-10-19T13:19:34.418Z,33.4
2017-10-19T13:20:34.784Z,33.4
2017-10-19T13:21:34.310Z,33.3
2017-10-19T13:22:34.437Z,33.4
2017-10-19T13:23:34.697Z,33.4
2017-10-19T13:24:34.729Z,33.3
2017-10-19T13:25:34.580Z,33.2
2017-10-19T13:26:34.521Z,33.2
2017-10-19T13:27:34.713Z,33.2
2017-10-19T13:28:34.901Z,33.2
2017-10-19T13:29:34.988Z,33.1
2017-10-19T13:30:34.737Z,33.1
2017-10-19T13:31:35.373Z,33.1
2017-10-19T13:32:35.040Z,33.1
2017-10-19T13:33:35.443Z,33.1
2017-10-19T13:34:35.220Z,33.1
2017-10-19T13:35:35.406Z,33.2